createdAt,value
2023-05-10T00:00:55.857Z,995.33
2023-05-10T00:01:55.909Z,995.32
2023-05-10T00:02:55.854Z,995.32
2023-05-10T00:03:55.877Z,995.32
2023-05-10T00:04:55.787Z,995.32
2023-05-10T00:05:55.815Z,995.31
2023-05-10T00:06:55.796Z,995.30
2023-05-10T00:07:55.758Z,995.30
2023-05-10T00:08:55.756Z,995.30
2023-05-10T00:09:55.773Z,995.30
2023-05-10T00:10:55.742Z,995.30
2023-05-10T00:11:55.743Z,995.30
2023-05-10T00:12:55.789Z,995.30
2023-05-10T00:13:55.705Z,995.30
2023-05-10T00:14:55.682Z,995.30
2023-05-10T00:15:55.676Z,995.31
2023-05-10T00:16:55.655Z,995.32
2023-05-10T00:17:55.709Z,995.35
2023-05-10T00:18:55.659Z,995.35
2023-05-10T00:19:55.618Z,995.32
2023-05-10T00:20:55.608Z,995.32
2023-05-10T00:21:55.600Z,995.34
2023-05-10T00:22:55.589Z,995.33
2023-05-10T00:23:55.600Z,995.33
2023-05-10T00:24:55.560Z,995.32
2023-05-10T00:25:55.568Z,995.33
2023-05-10T00:26:55.536Z,995.34
2023-05-10T00:27:55.535Z,995.34
2023-05-10T00:28:55.541Z,995.33
2023-05-10T00:29:55.523Z,995.33
2023-05-10T00:30:55.510Z,995.33
2023-05-10T00:31:55.569Z,995.35
2023-05-10T00:32:55.494Z,995.34
2023-05-10T00:33:55.482Z,995.35
2023-05-10T00:34:55.471Z,995.35
2023-05-10T00:35:55.449Z,995.36
2023-05-10T00:36:55.439Z,995.36
2023-05-10T00:37:55.439Z,995.37
2023-05-10T00:38:55.407Z,995.36
2023-05-10T00:39:55.466Z,995.36
2023-05-10T00:40:55.386Z,995.36
2023-05-10T00:41:55.384Z,995.36
2023-05-10T00:42:55.381Z,995.34
2023-05-10T00:43:55.370Z,995.34
2023-05-10T00:44:55.385Z,995.34
2023-05-10T00:45:55.431Z,995.33
2023-05-10T00:46:55.349Z,995.31
2023-05-10T00:47:55.496Z,995.32
2023-05-10T00:48:55.320Z,995.31
2023-05-10T00:49:55.299Z,995.31
2023-05-10T00:50:55.312Z,995.30
2023-05-10T00:51:55.288Z,995.30
2023-05-10T00:52:55.302Z,995.30
2023-05-10T00:53:55.250Z,995.30
2023-05-10T00:54:55.268Z,995.29
2023-05-10T00:55:55.276Z,995.27
2023-05-10T00:56:55.286Z,995.28
2023-05-10T00:57:55.239Z,995.28
2023-05-10T00:58:55.227Z,995.28
2023-05-10T00:59:55.189Z,995.30
2023-05-10T01:00:55.202Z,995.32
2023-05-10T01:01:55.234Z,995.37
2023-05-10T01:02:55.298Z,995.35
2023-05-10T01:03:55.181Z,995.37
2023-05-10T01:04:55.197Z,995.35
2023-05-10T01:05:55.151Z,995.37
2023-05-10T01:06:55.176Z,995.39
2023-05-10T01:07:55.145Z,995.42
2023-05-10T01:08:55.126Z,995.43
2023-05-10T01:09:55.144Z,995.43
2023-05-10T01:10:55.089Z,995.44
2023-05-10T01:11:55.149Z,995.46
2023-05-10T01:12:55.108Z,995.45
2023-05-10T01:13:55.077Z,995.47
2023-05-10T01:14:55.110Z,995.51
2023-05-10T01:15:55.084Z,995.47
2023-05-10T01:16:55.043Z,995.48
2023-05-10T01:17:55.086Z,995.53
2023-05-10T01:18:55.018Z,995.51
2023-05-10T01:19:55.036Z,995.50
2023-05-10T01:20:55.047Z,995.52
2023-05-10T01:21:54.956Z,995.52
2023-05-10T01:22:54.982Z,995.52
2023-05-10T01:23:54.946Z,995.54
2023-05-10T01:24:54.952Z,995.54
2023-05-10T01:25:54.950Z,995.55
2023-05-10T01:26:54.933Z,995.57
2023-05-10T01:27:54.915Z,995.55
2023-05-10T01:28:54.873Z,995.58
2023-05-10T01:30:09.172Z,995.57
2023-05-10T01:30:54.924Z,995.59
2023-05-10T01:31:54.864Z,995.60
2023-05-10T01:32:54.957Z,995.60
2023-05-10T01:33:54.864Z,995.59
2023-05-10T01:34:54.829Z,995.60
2023-05-10T01:35:54.817Z,995.61
2023-05-10T01:36:54.795Z,995.61
2023-05-10T01:37:54.771Z,995.61
2023-05-10T01:38:54.789Z,995.61
2023-05-10T01:39:54.769Z,995.61
2023-05-10T01:40:54.765Z,995.61
2023-05-10T01:41:54.737Z,995.60
2023-05-10T01:42:54.740Z,995.60
2023-05-10T01:43:54.732Z,995.59
2023-05-10T01:44:54.724Z,995.59
2023-05-10T01:45:54.701Z,995.60
2023-05-10T01:46:54.731Z,995.59
2023-05-10T01:47:54.686Z,995.58
2023-05-10T01:48:54.676Z,995.59
2023-05-10T01:49:54.651Z,995.59
2023-05-10T01:50:54.646Z,995.59
2023-05-10T01:51:54.648Z,995.61
2023-05-10T01:52:54.617Z,995.63
2023-05-10T01:53:54.615Z,995.62
2023-05-10T01:54:54.602Z,995.63
2023-05-10T01:55:54.628Z,995.65
2023-05-10T01:56:54.593Z,995.63
2023-05-10T01:57:54.554Z,995.66
2023-05-10T01:58:54.615Z,995.65
2023-05-10T01:59:54.565Z,995.65
2023-05-10T02:00:54.557Z,995.66
2023-05-10T02:01:54.552Z,995.68
2023-05-10T02:02:54.554Z,995.67
2023-05-10T02:03:54.551Z,995.69
2023-05-10T02:04:54.484Z,995.69
2023-05-10T02:05:54.481Z,995.70
2023-05-10T02:06:54.482Z,995.71
2023-05-10T02:07:54.467Z,995.71
2023-05-10T02:08:54.463Z,995.72
2023-05-10T02:09:54.443Z,995.73
2023-05-10T02:10:54.431Z,995.74
2023-05-10T02:11:54.421Z,995.74
2023-05-10T02:12:54.425Z,995.75
2023-05-10T02:13:54.417Z,995.75
2023-05-10T02:14:54.399Z,995.77
2023-05-10T02:15:54.376Z,995.78
2023-05-10T02:16:54.440Z,995.79
2023-05-10T02:17:54.361Z,995.80
2023-05-10T02:18:54.378Z,995.82
2023-05-10T02:19:54.362Z,995.81
2023-05-10T02:20:54.350Z,995.81
2023-05-10T02:21:54.383Z,995.82
2023-05-10T02:22:54.312Z,995.83
2023-05-10T02:23:54.297Z,995.84
2023-05-10T02:24:54.294Z,995.84
2023-05-10T02:25:54.264Z,995.84
2023-05-10T02:26:54.283Z,995.84
2023-05-10T02:27:54.248Z,995.86
2023-05-10T02:28:54.231Z,995.87
2023-05-10T02:29:54.223Z,995.88
2023-05-10T02:30:54.211Z,995.89
2023-05-10T02:31:54.242Z,995.89
2023-05-10T02:32:54.307Z,995.89
2023-05-10T02:33:54.216Z,995.89
2023-05-10T02:34:54.186Z,995.89
2023-05-10T02:35:54.162Z,995.88
2023-05-10T02:36:54.151Z,995.87
2023-05-10T02:37:54.116Z,995.87
2023-05-10T02:38:54.127Z,995.88
2023-05-10T02:39:54.115Z,995.88
2023-05-10T02:40:54.139Z,995.87
2023-05-10T02:41:54.085Z,995.87
2023-05-10T02:42:54.073Z,995.87
2023-05-10T02:43:54.085Z,995.88
2023-05-10T02:44:54.071Z,995.87
2023-05-10T02:45:54.096Z,995.89
2023-05-10T02:46:54.045Z,995.89
2023-05-10T02:47:54.023Z,995.89
2023-05-10T02:48:54.027Z,995.89
2023-05-10T02:49:54.028Z,995.88
2023-05-10T02:50:54.002Z,995.89
2023-05-10T02:51:53.980Z,995.88
2023-05-10T02:52:53.971Z,995.88
2023-05-10T02:53:53.960Z,995.88
2023-05-10T02:54:53.967Z,995.87
2023-05-10T02:55:53.954Z,995.87
2023-05-10T02:56:53.928Z,995.86
2023-05-10T02:57:53.909Z,995.86
2023-05-10T02:58:53.951Z,995.86
2023-05-10T02:59:53.886Z,995.85
2023-05-10T03:00:53.914Z,995.85
2023-05-10T03:01:53.936Z,995.85
2023-05-10T03:02:53.925Z,995.85
2023-05-10T03:03:53.877Z,995.86
2023-05-10T03:04:53.935Z,995.86
2023-05-10T03:05:53.825Z,995.86
2023-05-10T03:06:53.827Z,995.87
2023-05-10T03:07:53.811Z,995.87
2023-05-10T03:08:53.825Z,995.87
2023-05-10T03:09:53.829Z,995.87
2023-05-10T03:10:53.774Z,995.86
2023-05-10T03:11:53.780Z,995.85
2023-05-10T03:12:53.796Z,995.86
2023-05-10T03:13:53.764Z,995.86
2023-05-10T03:14:53.732Z,995.86
2023-05-10T03:15:53.787Z,995.88
2023-05-10T03:16:53.702Z,995.89
2023-05-10T03:17:53.810Z,995.90
2023-05-10T03:18:53.682Z,995.92
2023-05-10T03:19:53.690Z,995.93
2023-05-10T03:20:53.699Z,995.94
2023-05-10T03:21:53.635Z,995.95
2023-05-10T03:22:53.662Z,995.96
2023-05-10T03:23:53.599Z,995.97
2023-05-10T03:24:53.572Z,995.98
2023-05-10T03:25:53.553Z,995.98
2023-05-10T03:26:53.558Z,996.00
2023-05-10T03:27:53.529Z,996.01
2023-05-10T03:28:53.540Z,996.02
2023-05-10T03:29:53.525Z,996.03
2023-05-10T03:30:53.506Z,996.04
2023-05-10T03:31:53.511Z,996.06
2023-05-10T03:32:53.535Z,996.08
2023-05-10T03:33:53.460Z,996.09
2023-05-10T03:34:53.453Z,996.10
2023-05-10T03:35:53.459Z,996.11
2023-05-10T03:36:53.440Z,996.11
2023-05-10T03:37:53.410Z,996.09
2023-05-10T03:38:53.418Z,996.08
2023-05-10T03:39:53.400Z,996.09
2023-05-10T03:40:53.467Z,996.08
2023-05-10T03:41:53.453Z,996.07
2023-05-10T03:42:53.361Z,996.08
2023-05-10T03:43:53.358Z,996.09
2023-05-10T03:44:53.346Z,996.11
2023-05-10T03:45:53.326Z,996.13
2023-05-10T03:46:53.376Z,996.16
2023-05-10T03:47:53.329Z,996.18
2023-05-10T03:48:53.309Z,996.20
2023-05-10T03:49:53.272Z,996.20
2023-05-10T03:50:53.279Z,996.20
2023-05-10T03:51:53.260Z,996.20
2023-05-10T03:52:54.692Z,996.21
2023-05-10T03:53:53.230Z,996.22
2023-05-10T03:54:53.257Z,996.22
2023-05-10T03:55:53.204Z,996.26
2023-05-10T03:56:53.214Z,996.27
2023-05-10T03:57:53.228Z,996.29
2023-05-10T03:58:53.218Z,996.31
2023-05-10T03:59:53.197Z,996.31
2023-05-10T04:00:53.172Z,996.31
2023-05-10T04:01:53.186Z,996.31
2023-05-10T04:02:53.210Z,996.30
2023-05-10T04:03:53.213Z,996.30
2023-05-10T04:04:53.120Z,996.31
2023-05-10T04:05:53.174Z,996.30
2023-05-10T04:06:53.107Z,996.30
2023-05-10T04:07:53.108Z,996.31
2023-05-10T04:08:53.083Z,996.33
2023-05-10T04:09:53.061Z,996.34
2023-05-10T04:10:53.079Z,996.35
2023-05-10T04:11:53.151Z,996.35
2023-05-10T04:12:53.072Z,996.35
2023-05-10T04:13:53.026Z,996.35
2023-05-10T04:14:53.110Z,996.35
2023-05-10T04:15:52.983Z,996.33
2023-05-10T04:16:53.017Z,996.32
2023-05-10T04:17:52.987Z,996.32
2023-05-10T04:18:52.977Z,996.31
2023-05-10T04:19:52.979Z,996.31
2023-05-10T04:20:52.949Z,996.30
2023-05-10T04:21:52.942Z,996.30
2023-05-10T04:22:52.926Z,996.29
2023-05-10T04:23:52.898Z,996.28
2023-05-10T04:24:52.918Z,996.27
2023-05-10T04:25:53.000Z,996.27
2023-05-10T04:26:52.894Z,996.26
2023-05-10T04:27:52.895Z,996.26
2023-05-10T04:28:52.885Z,996.27
2023-05-10T04:29:52.865Z,996.27
2023-05-10T04:30:52.896Z,996.28
2023-05-10T04:31:52.948Z,996.29
2023-05-10T04:32:52.974Z,996.31
2023-05-10T04:33:52.807Z,996.32
2023-05-10T04:34:52.820Z,996.32
2023-05-10T04:35:52.817Z,996.32
2023-05-10T04:36:52.809Z,996.32
2023-05-10T04:37:52.771Z,996.32
2023-05-10T04:38:52.762Z,996.31
2023-05-10T04:39:52.756Z,996.31
2023-05-10T04:40:52.866Z,996.29
2023-05-10T04:41:52.694Z,996.30
2023-05-10T04:42:52.702Z,996.30
2023-05-10T04:43:52.728Z,996.30
2023-05-10T04:44:52.712Z,996.31
2023-05-10T04:45:52.769Z,996.32
2023-05-10T04:46:52.688Z,996.33
2023-05-10T04:47:52.703Z,996.34
2023-05-10T04:48:52.708Z,996.35
2023-05-10T04:49:52.674Z,996.36
2023-05-10T04:50:52.614Z,996.38
2023-05-10T04:51:52.621Z,996.39
2023-05-10T04:52:53.360Z,996.40
2023-05-10T04:54:04.557Z,996.41
2023-05-10T04:54:52.587Z,996.41
2023-05-10T04:55:52.675Z,996.43
2023-05-10T04:56:52.577Z,996.43
2023-05-10T04:57:52.520Z,996.44
2023-05-10T04:58:52.562Z,996.45
2023-05-10T04:59:52.540Z,996.45
2023-05-10T05:00:52.519Z,996.46
2023-05-10T05:01:52.542Z,996.47
2023-05-10T05:02:52.564Z,996.48
2023-05-10T05:03:52.562Z,996.49
2023-05-10T05:04:52.475Z,996.50
2023-05-10T05:05:52.483Z,996.50
2023-05-10T05:06:54.026Z,996.50
2023-05-10T05:07:52.455Z,996.51
2023-05-10T05:08:52.452Z,996.52
2023-05-10T05:09:52.410Z,996.53
2023-05-10T05:10:52.424Z,996.53
2023-05-10T05:11:52.464Z,996.55
2023-05-10T05:12:52.394Z,996.57
2023-05-10T05:13:52.422Z,996.57
2023-05-10T05:14:52.393Z,996.59
2023-05-10T05:15:52.464Z,996.59
2023-05-10T05:16:52.334Z,996.60
2023-05-10T05:17:52.410Z,996.61
2023-05-10T05:18:52.300Z,996.61
2023-05-10T05:19:52.342Z,996.62
2023-05-10T05:20:52.282Z,996.62
2023-05-10T05:21:52.368Z,996.62
2023-05-10T05:22:52.345Z,996.62
2023-05-10T05:23:52.334Z,996.62
2023-05-10T05:24:52.245Z,996.64
2023-05-10T05:25:52.243Z,996.65
2023-05-10T05:26:52.232Z,996.66
2023-05-10T05:27:52.215Z,996.67
2023-05-10T05:28:52.183Z,996.67
2023-05-10T05:29:52.182Z,996.67
2023-05-10T05:30:52.189Z,996.69
2023-05-10T05:31:54.775Z,996.69
2023-05-10T05:32:52.188Z,996.69
2023-05-10T05:33:52.170Z,996.69
2023-05-10T05:34:52.106Z,996.70
2023-05-10T05:35:52.160Z,996.72
2023-05-10T05:36:52.135Z,996.74
2023-05-10T05:37:52.085Z,996.75
2023-05-10T05:38:52.110Z,996.77
2023-05-10T05:39:52.096Z,996.78
2023-05-10T05:40:52.078Z,996.80
2023-05-10T05:41:52.077Z,996.81
2023-05-10T05:42:52.046Z,996.82
2023-05-10T05:43:52.069Z,996.81
2023-05-10T05:44:52.016Z,996.81
2023-05-10T05:45:52.164Z,996.82
2023-05-10T05:46:52.078Z,996.81
2023-05-10T05:47:52.093Z,996.82
2023-05-10T05:49:07.932Z,996.81
2023-05-10T05:49:52.109Z,996.80
2023-05-10T05:52:30.770Z,996.78
2023-05-10T05:53:31.941Z,996.78
2023-05-10T05:54:31.591Z,996.72
2023-05-10T05:57:35.214Z,996.72
2023-05-10T05:58:35.804Z,996.78
2023-05-10T06:01:41.567Z,996.80
2023-05-10T06:02:42.531Z,996.76
2023-05-10T06:03:42.512Z,996.81
2023-05-10T06:04:44.828Z,996.81
2023-05-10T06:05:42.399Z,996.86
2023-05-10T06:06:42.341Z,996.89
2023-05-10T06:07:42.330Z,996.93
2023-05-10T06:08:42.349Z,996.96
2023-05-10T06:09:42.304Z,996.98
2023-05-10T06:10:42.307Z,996.99
2023-05-10T06:11:42.434Z,996.98
2023-05-10T06:12:42.361Z,996.98
2023-05-10T06:13:42.254Z,997.00
2023-05-10T06:14:42.266Z,997.01
2023-05-10T06:15:42.227Z,997.04
2023-05-10T06:16:42.368Z,997.04
2023-05-10T06:17:42.214Z,997.05
2023-05-10T06:18:42.210Z,997.05
2023-05-10T06:19:42.222Z,997.07
2023-05-10T06:20:42.203Z,997.06
2023-05-10T06:21:42.199Z,997.06
2023-05-10T06:22:42.164Z,997.05
2023-05-10T06:23:42.210Z,997.06
2023-05-10T06:24:42.220Z,997.04
2023-05-10T06:25:42.181Z,997.04
2023-05-10T06:26:42.135Z,997.06
2023-05-10T06:27:42.096Z,997.06
2023-05-10T06:28:42.168Z,997.08
2023-05-10T06:29:42.066Z,997.13
2023-05-10T06:30:42.107Z,997.11
2023-05-10T06:31:42.111Z,997.14
2023-05-10T06:32:42.145Z,997.15
2023-05-10T06:33:42.050Z,997.17
2023-05-10T06:34:42.071Z,997.18
2023-05-10T06:35:42.017Z,997.19
2023-05-10T06:36:42.043Z,997.21
2023-05-10T06:37:42.013Z,997.20
2023-05-10T06:38:41.991Z,997.20
2023-05-10T06:39:41.974Z,997.21
2023-05-10T06:40:41.976Z,997.24
2023-05-10T06:41:42.008Z,997.27
2023-05-10T06:42:41.944Z,997.29
2023-05-10T06:43:41.931Z,997.31
2023-05-10T06:44:41.916Z,997.33
2023-05-10T06:45:41.908Z,997.35
2023-05-10T06:46:41.967Z,997.37
2023-05-10T06:47:41.914Z,997.38
2023-05-10T06:48:41.866Z,997.39
2023-05-10T06:49:41.898Z,997.39
2023-05-10T06:50:41.872Z,997.39
2023-05-10T06:51:41.868Z,997.35
2023-05-10T06:52:41.862Z,997.35
2023-05-10T06:53:41.822Z,997.32
2023-05-10T06:54:41.834Z,997.32
2023-05-10T06:55:41.800Z,997.29
2023-05-10T06:56:41.790Z,997.28
2023-05-10T06:57:41.766Z,997.28
2023-05-10T06:58:41.799Z,997.29
2023-05-10T06:59:41.732Z,997.29
2023-05-10T07:00:41.876Z,997.31
2023-05-10T07:01:41.758Z,997.32
2023-05-10T07:02:41.746Z,997.35
2023-05-10T07:03:41.769Z,997.35
2023-05-10T07:04:41.909Z,997.36
2023-05-10T07:05:41.754Z,997.37
2023-05-10T07:06:41.651Z,997.39
2023-05-10T07:07:41.660Z,997.38
2023-05-10T07:08:41.709Z,997.39
2023-05-10T07:09:41.667Z,997.37
2023-05-10T07:10:41.669Z,997.37
2023-05-10T07:11:41.625Z,997.37
2023-05-10T07:12:41.678Z,997.36
2023-05-10T07:13:41.621Z,997.36
2023-05-10T07:14:41.608Z,997.36
2023-05-10T07:15:41.576Z,997.37
2023-05-10T07:16:41.642Z,997.38
2023-05-10T07:17:43.257Z,997.39
2023-05-10T07:18:41.619Z,997.41
2023-05-10T07:19:41.530Z,997.42
2023-05-10T07:20:41.536Z,997.44
2023-05-10T07:21:41.598Z,997.44
2023-05-10T07:22:41.514Z,997.45
2023-05-10T07:23:43.690Z,997.47
2023-05-10T07:24:41.611Z,997.46
2023-05-10T07:25:41.634Z,997.45
2023-05-10T07:32:21.149Z,997.46
2023-05-10T07:33:21.970Z,997.47
2023-05-10T07:34:21.971Z,997.49
2023-05-10T07:35:21.741Z,997.49
2023-05-10T07:37:31.425Z,997.51
2023-05-10T07:41:36.617Z,997.54
2023-05-10T07:42:37.629Z,997.56
2023-05-10T07:48:18.533Z,997.64
2023-05-10T07:49:19.591Z,997.65
2023-05-10T07:50:19.355Z,997.64
2023-05-10T07:51:19.280Z,997.65
2023-05-10T07:52:21.236Z,997.62
2023-05-10T07:53:19.257Z,997.64
2023-05-10T07:54:34.050Z,997.65
2023-05-10T07:55:19.239Z,997.66
2023-05-10T07:56:19.224Z,997.68
2023-05-10T07:57:19.224Z,997.71
2023-05-10T07:58:19.265Z,997.72
2023-05-10T07:59:19.189Z,997.70
2023-05-10T08:00:19.243Z,997.73
2023-05-10T08:01:19.134Z,997.73
2023-05-10T08:02:19.207Z,997.73
2023-05-10T08:03:19.281Z,997.75
2023-05-10T08:04:19.382Z,997.74
2023-05-10T08:06:38.426Z,997.76
2023-05-10T08:07:39.614Z,997.74
2023-05-10T08:10:12.316Z,997.77
2023-05-10T08:11:13.227Z,997.78
2023-05-10T08:14:44.808Z,997.80
2023-05-10T08:15:45.604Z,997.80
2023-05-10T08:18:34.211Z,997.84
2023-05-10T08:19:36.032Z,997.85
2023-05-10T08:20:35.278Z,997.86
2023-05-10T08:21:35.065Z,997.86
2023-05-10T08:22:51.817Z,997.84
2023-05-10T08:24:59.381Z,997.88
2023-05-10T08:26:00.374Z,997.89
2023-05-10T08:27:18.823Z,997.89
2023-05-10T08:29:53.424Z,997.91
2023-05-10T08:30:54.401Z,997.91
2023-05-10T08:32:02.965Z,997.93
2023-05-10T08:32:54.448Z,997.91
2023-05-10T08:33:54.310Z,997.93
2023-05-10T08:34:54.288Z,997.94
2023-05-10T08:37:32.894Z,997.96
2023-05-10T08:41:48.498Z,997.95
2023-05-10T08:48:19.453Z,998.03
2023-05-10T08:49:20.200Z,998.04
2023-05-10T08:52:33.373Z,998.07
2023-05-10T08:53:45.282Z,998.07
2023-05-10T08:54:34.165Z,998.08
2023-05-10T08:55:34.069Z,998.10
2023-05-10T09:07:11.539Z,998.25
2023-05-10T09:08:12.548Z,998.26
2023-05-10T09:09:12.609Z,998.26
2023-05-10T09:13:35.983Z,998.27
2023-05-10T09:14:36.622Z,998.30
2023-05-10T09:15:36.695Z,998.30
2023-05-10T09:16:36.416Z,998.28
2023-05-10T09:17:36.405Z,998.29
2023-05-10T09:40:14.410Z,998.52
2023-05-10T09:41:15.541Z,998.52
2023-05-10T09:43:49.175Z,998.54
2023-05-10T09:44:50.337Z,998.54
2023-05-10T09:57:39.313Z,998.62
2023-05-10T09:58:40.263Z,998.61
2023-05-10T09:59:40.249Z,998.61
2023-05-10T10:00:40.253Z,998.61
2023-05-10T10:01:40.273Z,998.61
2023-05-10T10:02:40.169Z,998.60
2023-05-10T10:38:49.885Z,998.63
2023-05-10T10:41:13.152Z,998.63
2023-05-10T10:42:14.113Z,998.65
2023-05-10T10:43:14.051Z,998.63
2023-05-10T10:44:14.040Z,998.68
2023-05-10T10:45:14.213Z,998.67
2023-05-10T10:46:13.961Z,998.67
2023-05-10T10:47:24.769Z,998.69
2023-05-10T10:48:13.922Z,998.71
2023-05-10T10:49:13.924Z,998.71
2023-05-10T10:50:14.044Z,998.72
2023-05-10T10:51:13.866Z,998.74
2023-05-10T10:52:13.847Z,998.76
2023-05-10T10:53:14.112Z,998.76
2023-05-10T10:54:13.959Z,998.77
2023-05-10T10:55:13.889Z,998.82
2023-05-10T10:56:13.903Z,998.81
2023-05-10T10:57:13.822Z,998.80
2023-05-10T10:58:13.799Z,998.81
2023-05-10T11:00:23.217Z,998.82
2023-05-10T11:01:24.186Z,998.81
2023-05-10T11:02:24.179Z,998.81
2023-05-10T11:12:43.046Z,998.87
2023-05-10T11:13:44.025Z,998.87
2023-05-10T11:14:43.973Z,998.87
2023-05-10T11:15:43.918Z,998.85
2023-05-10T11:19:42.785Z,998.85
2023-05-10T11:20:43.388Z,998.84
2023-05-10T11:21:43.417Z,998.86
2023-05-10T11:22:43.367Z,998.87
2023-05-10T11:23:43.257Z,998.85
2023-05-10T11:24:43.276Z,998.89
2023-05-10T11:25:43.447Z,998.89
2023-05-10T11:26:43.260Z,998.88
2023-05-10T11:27:43.268Z,998.87
2023-05-10T11:28:43.233Z,998.87
2023-05-10T11:29:43.244Z,998.87
2023-05-10T11:30:43.203Z,998.88
2023-05-10T11:31:43.178Z,998.89
2023-05-10T11:32:43.230Z,998.87
2023-05-10T11:33:43.217Z,998.89
2023-05-10T11:34:43.174Z,998.88
2023-05-10T11:35:43.721Z,998.89
2023-05-10T11:36:43.195Z,998.89
2023-05-10T11:37:43.134Z,998.90
2023-05-10T11:38:43.145Z,998.89
2023-05-10T11:39:43.137Z,998.90
2023-05-10T11:40:43.112Z,998.93
2023-05-10T11:41:43.191Z,998.90
2023-05-10T11:42:43.072Z,998.91
2023-05-10T11:43:43.111Z,998.92
2023-05-10T11:44:43.045Z,998.89
2023-05-10T11:45:43.052Z,998.92
2023-05-10T11:46:43.214Z,998.90
2023-05-10T11:54:33.515Z,998.93
2023-05-10T11:55:34.891Z,998.94
2023-05-10T11:56:34.446Z,998.95
2023-05-10T11:57:34.297Z,998.93
2023-05-10T11:58:54.508Z,998.92
2023-05-10T11:59:34.315Z,998.91
2023-05-10T12:00:34.386Z,998.90
2023-05-10T12:01:34.257Z,998.94
2023-05-10T12:02:34.329Z,998.95
2023-05-10T12:03:34.338Z,998.98
2023-05-10T12:04:34.296Z,998.98
2023-05-10T12:41:08.918Z,999.26
2023-05-10T12:42:09.995Z,999.27
2023-05-10T12:43:09.863Z,999.28
2023-05-10T14:49:09.682Z,999.51
2023-05-10T14:50:10.825Z,999.49
2023-05-10T14:51:10.507Z,999.50
2023-05-10T14:52:10.534Z,999.51
2023-05-10T14:53:10.480Z,999.53
2023-05-10T15:04:30.336Z,999.57
2023-05-10T15:05:31.283Z,999.58
2023-05-10T15:07:01.799Z,999.59
2023-05-10T15:07:31.268Z,999.60
2023-05-10T15:08:31.204Z,999.61
2023-05-10T15:09:31.221Z,999.63
2023-05-10T15:13:41.931Z,999.64
2023-05-10T15:14:42.936Z,999.59
2023-05-10T15:15:42.872Z,999.60
2023-05-10T15:16:43.119Z,999.59
2023-05-10T15:17:42.886Z,999.61
2023-05-10T15:18:43.123Z,999.61
2023-05-10T15:19:42.831Z,999.62
2023-05-10T15:20:43.619Z,999.64
2023-05-10T15:21:42.827Z,999.65
2023-05-10T15:22:42.775Z,999.65
2023-05-10T15:23:42.788Z,999.66
2023-05-10T15:24:42.791Z,999.67
2023-05-10T15:25:42.748Z,999.67
2023-05-10T15:26:42.757Z,999.67
2023-05-10T15:27:42.876Z,999.71
2023-05-10T15:28:42.764Z,999.73
2023-05-10T15:29:42.757Z,999.72
2023-05-10T15:30:42.727Z,999.74
2023-05-10T15:31:42.743Z,999.76
2023-05-10T15:32:42.751Z,999.75
2023-05-10T15:33:42.718Z,999.77
2023-05-10T15:34:42.672Z,999.76
2023-05-10T15:35:42.694Z,999.76
2023-05-10T15:36:42.686Z,999.77
2023-05-10T15:37:42.636Z,999.78
2023-05-10T15:38:42.643Z,999.79
2023-05-10T15:39:42.604Z,999.78
2023-05-10T15:40:42.634Z,999.78
2023-05-10T15:41:42.707Z,999.77
2023-05-10T15:42:42.663Z,999.79
2023-05-10T15:43:42.611Z,999.80
2023-05-10T15:44:42.588Z,999.80
2023-05-10T15:45:45.165Z,999.81
2023-05-10T15:46:42.585Z,999.82
2023-05-10T15:47:42.556Z,999.80
2023-05-10T15:48:42.516Z,999.81
2023-05-10T15:49:42.652Z,999.82
2023-05-10T15:50:42.526Z,999.82
2023-05-10T15:51:43.347Z,999.80
2023-05-10T15:52:42.520Z,999.81
2023-05-10T15:53:49.718Z,999.80
2023-05-10T15:54:42.462Z,999.80
2023-05-10T15:55:42.478Z,999.80
2023-05-10T15:56:42.437Z,999.80
2023-05-10T15:57:42.611Z,999.83
2023-05-10T15:58:42.791Z,999.81
2023-05-10T15:59:42.402Z,999.82
2023-05-10T16:00:42.511Z,999.83
2023-05-10T16:01:42.419Z,999.84
2023-05-10T16:08:42.179Z,999.88
2023-05-10T16:16:56.966Z,999.95
2023-05-10T16:17:57.343Z,999.95
2023-05-10T16:18:57.146Z,999.97
2023-05-10T16:19:57.117Z,999.96
2023-05-10T16:20:57.106Z,999.99
2023-05-10T16:21:57.143Z,1000.00
2023-05-10T16:22:57.094Z,999.99
2023-05-10T16:23:57.119Z,1000.00
2023-05-10T16:24:57.331Z,1000.00
2023-05-10T16:25:57.062Z,1000.01
2023-05-10T16:26:57.061Z,1000.01
2023-05-10T16:54:54.189Z,1000.22
2023-05-10T23:27:34.309Z,1001.94
2023-05-10T23:28:35.222Z,1001.93
2023-05-10T23:29:35.092Z,1001.94
2023-05-10T23:30:35.080Z,1001.94
2023-05-10T23:31:35.137Z,1001.95
2023-05-10T23:32:35.128Z,1001.95
2023-05-10T23:33:35.066Z,1001.95
2023-05-10T23:34:35.143Z,1001.95
2023-05-10T23:35:35.103Z,1001.95
2023-05-10T23:36:35.091Z,1001.95
2023-05-10T23:37:35.287Z,1001.94
2023-05-10T23:38:35.064Z,1001.93
2023-05-10T23:39:35.108Z,1001.92
2023-05-10T23:40:35.132Z,1001.90
2023-05-10T23:45:52.710Z,1001.86
2023-05-10T23:51:31.749Z,1001.81
2023-05-10T23:52:32.831Z,1001.81
